Time;durP1;ratioP1;P1;durP2;ratioP2;P2;SDS_P1;SDS_P2;PMS_P1;PMS_P2;Temp;Humidity;BMP_temperature;BMP_pressure;BME280_temperature;BME280_humidity;BME280_pressure;Samples;Min_cycle;Max_cycle;Signal;HPM_P1;HPM_P2
2022/05/23 00:01:55;;;;;;;4.53;4.30;;;13.80;1.00;;;;;;6189401;28;20232;-51
2022/05/23 00:04:58;;;;;;;4.57;4.30;;;13.80;1.00;;;;;;6186765;28;20252;-51
2022/05/23 00:08:02;;;;;;;4.60;4.30;;;13.70;1.00;;;;;;6166766;28;20271;-52
2022/05/23 00:11:04;;;;;;;4.20;4.00;;;13.70;1.00;;;;;;6185851;28;20295;-50
2022/05/23 00:14:08;;;;;;;5.23;4.93;;;13.60;1.00;;;;;;6173334;28;20237;-51
2022/05/23 00:17:12;;;;;;;4.73;4.43;;;13.60;1.00;;;;;;6161916;28;20268;-51
2022/05/23 00:20:19;;;;;;;4.20;4.00;;;13.60;1.00;;;;;;6160561;28;20709;-52
2022/05/23 00:23:22;;;;;;;4.20;4.00;;;13.50;1.00;;;;;;6162228;28;20797;-51
2022/05/23 00:26:26;;;;;;;5.10;4.70;;;13.50;1.00;;;;;;6163348;28;20698;-52
2022/05/23 00:29:30;;;;;;;4.77;4.43;;;13.50;1.00;;;;;;6162782;28;20329;-52
2022/05/23 00:35:56;;;;;;;4.27;4.07;;;13.40;1.00;;;;;;6187173;28;20233;-52
2022/05/23 00:38:59;;;;;;;4.70;4.20;;;13.40;1.00;;;;;;6184400;28;20774;-50
2022/05/23 00:45:26;;;;;;;4.40;4.13;;;13.30;1.00;;;;;;6186813;28;20242;-53
2022/05/23 00:48:31;;;;;;;4.90;4.50;;;13.20;1.00;;;;;;6176449;28;20384;-51
2022/05/23 00:51:34;;;;;;;5.20;4.70;;;13.20;1.00;;;;;;6160495;28;20237;-51
2022/05/23 00:54:41;;;;;;;5.03;4.63;;;13.20;1.00;;;;;;6165018;28;20323;-52
2022/05/23 00:57:50;;;;;;;4.93;4.47;;;13.10;1.00;;;;;;6183986;28;20263;-51
2022/05/23 01:00:58;;;;;;;8.17;4.80;;;13.10;1.00;;;;;;6191343;28;20616;-52
2022/05/23 01:04:02;;;;;;;5.10;4.80;;;13.10;1.00;;;;;;6182916;28;20232;-50
2022/05/23 01:07:06;;;;;;;5.00;4.53;;;13.00;1.00;;;;;;6206153;28;20246;-50
2022/05/23 01:10:10;;;;;;;5.10;4.80;;;13.00;1.00;;;;;;6208639;28;20751;-52
2022/05/23 01:13:13;;;;;;;5.20;5.00;;;13.10;1.00;;;;;;6174986;28;20236;-51
2022/05/23 01:16:17;;;;;;;6.20;4.67;;;13.00;1.00;;;;;;6167388;28;20327;-51
2022/05/23 01:19:20;;;;;;;5.20;4.97;;;13.00;1.00;;;;;;6166586;28;20275;-52
2022/05/23 01:22:31;;;;;;;5.33;5.03;;;13.00;1.00;;;;;;6182511;28;20720;-51
2022/05/23 01:25:35;;;;;;;5.67;5.37;;;13.00;1.00;;;;;;6190965;28;20795;-53
2022/05/23 01:28:39;;;;;;;4.93;4.63;;;13.00;1.00;;;;;;6190706;28;20266;-52
2022/05/23 01:31:43;;;;;;;4.80;4.47;;;12.90;1.00;;;;;;6187650;28;20837;-51
2022/05/23 01:34:46;;;;;;;5.90;5.37;;;12.90;1.00;;;;;;6193029;28;20749;-51
2022/05/23 01:37:48;;;;;;;5.57;5.27;;;12.80;1.00;;;;;;6209912;28;20709;-52
2022/05/23 01:40:54;;;;;;;6.00;5.37;;;12.80;1.00;;;;;;6189726;28;20605;-52
2022/05/23 01:43:57;;;;;;;5.60;5.20;;;12.80;10.90;;;;;;6191286;28;20383;-52
2022/05/23 01:47:00;;;;;;;5.17;4.87;;;12.70;15.00;;;;;;6189455;28;20714;-49
2022/05/23 01:50:03;;;;;;;5.70;4.57;;;12.70;14.90;;;;;;6168860;28;20260;-50
2022/05/23 01:53:07;;;;;;;5.60;5.30;;;12.80;15.10;;;;;;6165290;28;20311;-51
2022/05/23 01:56:11;;;;;;;5.33;4.83;;;12.80;15.00;;;;;;6170106;28;20250;-50
2022/05/23 02:02:34;;;;;;;5.10;4.80;;;12.70;15.10;;;;;;6187618;28;20860;-51
2022/05/23 02:05:38;;;;;;;5.37;4.93;;;12.70;17.30;;;;;;6196850;28;20289;-52
2022/05/23 02:08:41;;;;;;;5.27;5.07;;;12.70;22.00;;;;;;6203985;28;20943;-50
2022/05/23 02:11:45;;;;;;;5.50;5.20;;;12.60;31.70;;;;;;6183507;28;20323;-52
2022/05/23 02:14:50;;;;;;;6.17;5.87;;;12.60;35.90;;;;;;6191739;28;20235;-53
2022/05/23 02:17:52;;;;;;;5.93;5.53;;;12.60;35.40;;;;;;6189211;28;20247;-51
2022/05/23 02:20:55;;;;;;;5.30;5.00;;;12.60;42.90;;;;;;6187784;28;20391;-51
2022/05/23 02:23:58;;;;;;;5.47;5.27;;;12.50;50.10;;;;;;6177628;28;20264;-53
2022/05/23 02:27:02;;;;;;;5.40;5.10;;;12.50;57.60;;;;;;6164922;28;20699;-50
2022/05/23 02:30:07;;;;;;;6.13;5.60;;;12.40;60.80;;;;;;6169468;28;20315;-51
2022/05/23 02:33:09;;;;;;;6.30;5.70;;;12.40;66.90;;;;;;6185917;28;20336;-51
2022/05/23 02:36:12;;;;;;;5.60;5.33;;;12.40;87.30;;;;;;6208426;28;20250;-51
2022/05/23 02:39:15;;;;;;;6.50;6.03;;;12.40;93.00;;;;;;6198456;28;20717;-51
2022/05/23 02:42:20;;;;;;;6.13;5.73;;;12.30;99.90;;;;;;6168589;28;20305;-51
2022/05/23 02:45:22;;;;;;;5.83;5.53;;;12.30;99.90;;;;;;6165685;28;20241;-51
2022/05/23 02:48:25;;;;;;;6.40;5.90;;;12.30;99.90;;;;;;6165320;28;20312;-50
2022/05/23 02:51:28;;;;;;;7.03;6.33;;;12.30;99.90;;;;;;6162720;28;20278;-52
2022/05/23 02:54:31;;;;;;;6.77;5.97;;;12.30;99.90;;;;;;6164337;28;20243;-51
2022/05/23 02:57:35;;;;;;;6.07;5.77;;;12.30;99.90;;;;;;6179329;28;20379;-52
2022/05/23 03:00:38;;;;;;;5.97;5.60;;;12.20;99.90;;;;;;6187909;28;20279;-51
2022/05/23 03:03:41;;;;;;;6.13;5.90;;;12.20;99.90;;;;;;6193830;28;20377;-51
2022/05/23 03:06:44;;;;;;;6.50;6.07;;;12.20;99.90;;;;;;6185792;28;22743;-51
2022/05/23 03:09:47;;;;;;;6.73;6.23;;;12.20;99.90;;;;;;6190805;28;20732;-51
2022/05/23 03:12:51;;;;;;;7.20;6.60;;;12.20;99.90;;;;;;6189075;28;20236;-53
2022/05/23 03:15:53;;;;;;;7.03;6.43;;;12.20;99.90;;;;;;6188691;28;20236;-51
2022/05/23 03:18:56;;;;;;;7.00;6.50;;;12.20;99.90;;;;;;6183552;28;20472;-52
2022/05/23 03:28:41;;;;;;;6.63;6.20;;;12.10;99.90;;;;;;6186095;28;20564;-51
2022/05/23 03:31:43;;;;;;;6.93;6.50;;;12.10;99.90;;;;;;6167950;28;20792;-50
2022/05/23 03:34:46;;;;;;;7.40;6.70;;;12.10;99.90;;;;;;6204054;28;20383;-51
2022/05/23 03:37:49;;;;;;;6.73;6.43;;;12.20;99.90;;;;;;6192237;28;20291;-50
2022/05/23 03:40:51;;;;;;;7.03;6.43;;;12.10;99.90;;;;;;6181921;28;20778;-49
2022/05/23 03:43:55;;;;;;;7.20;6.70;;;12.20;99.90;;;;;;6181530;28;20875;-51
2022/05/23 03:46:58;;;;;;;8.70;6.90;;;12.20;99.90;;;;;;6189478;28;20263;-55
2022/05/23 03:50:01;;;;;;;6.97;6.47;;;12.20;99.90;;;;;;6183932;28;20231;-51
2022/05/23 03:53:04;;;;;;;7.23;6.73;;;12.20;99.90;;;;;;6191152;28;20305;-53
2022/05/23 03:56:07;;;;;;;7.33;6.73;;;12.20;99.90;;;;;;6185072;28;20239;-52
2022/05/23 03:59:11;;;;;;;7.63;7.13;;;12.20;99.90;;;;;;6186806;28;20754;-52
2022/05/23 04:02:14;;;;;;;7.90;7.33;;;12.30;99.90;;;;;;6183446;28;20239;-51
2022/05/23 04:05:18;;;;;;;6.30;5.90;;;12.30;99.90;;;;;;6181679;28;20523;-56
2022/05/23 04:08:21;;;;;;;7.83;7.33;;;12.40;99.90;;;;;;6183796;28;20397;-51
2022/05/23 04:11:23;;;;;;;7.93;7.23;;;12.40;99.90;;;;;;6183347;28;20471;-51
2022/05/23 04:14:33;;;;;;;8.60;7.90;;;12.40;99.90;;;;;;6183534;28;20248;-51
2022/05/23 04:17:36;;;;;;;7.10;6.70;;;12.50;99.90;;;;;;6182353;28;20251;-51
2022/05/23 04:20:39;;;;;;;7.23;6.53;;;12.50;99.90;;;;;;6178582;28;20295;-51
2022/05/23 04:23:42;;;;;;;7.20;6.67;;;12.60;99.90;;;;;;6179145;28;20268;-53
2022/05/23 04:26:45;;;;;;;8.03;7.43;;;12.60;99.90;;;;;;6187860;28;20305;-52
2022/05/23 04:29:49;;;;;;;7.60;6.90;;;12.60;99.90;;;;;;6187709;28;20530;-52
2022/05/23 04:36:12;;;;;;;7.77;7.23;;;12.80;99.90;;;;;;6190968;28;20235;-51
2022/05/23 04:39:18;;;;;;;8.43;7.53;;;12.80;99.90;;;;;;6195536;28;20289;-51
2022/05/23 04:42:21;;;;;;;7.90;7.20;;;12.90;99.90;;;;;;6186540;28;20359;-51
2022/05/23 04:45:25;;;;;;;7.73;7.23;;;13.00;99.90;;;;;;6194095;28;20271;-51
2022/05/23 04:51:48;;;;;;;11.53;7.07;;;13.20;99.90;;;;;;6186161;28;20362;-52
2022/05/23 04:54:51;;;;;;;7.67;7.00;;;13.50;99.90;;;;;;6192396;28;20239;-53
2022/05/23 04:57:58;;;;;;;8.17;7.17;;;13.70;99.90;;;;;;6198673;28;20810;-51
2022/05/23 05:01:02;;;;;;;6.90;6.40;;;14.00;99.90;;;;;;6193617;28;20743;-54
2022/05/23 05:04:05;;;;;;;7.00;6.70;;;14.30;99.90;;;;;;6199575;28;20236;-51
2022/05/23 05:07:08;;;;;;;7.47;6.90;;;14.60;86.30;;;;;;6188665;28;20250;-52
2022/05/23 05:10:12;;;;;;;7.20;6.70;;;15.00;85.90;;;;;;6189119;28;20334;-51
2022/05/23 05:13:14;;;;;;;7.53;6.83;;;15.10;70.70;;;;;;6190053;28;20869;-51
2022/05/23 05:16:23;;;;;;;6.47;6.07;;;15.50;51.30;;;;;;6193235;28;20236;-51
2022/05/23 05:19:30;;;;;;;7.53;6.63;;;15.70;35.50;;;;;;6185588;28;20239;-52
2022/05/23 05:22:33;;;;;;;7.17;6.67;;;16.10;17.50;;;;;;6177677;28;20331;-52
2022/05/23 05:25:39;;;;;;;7.07;6.67;;;16.20;8.30;;;;;;6183565;28;20264;-52
2022/05/23 05:28:42;;;;;;;6.93;6.33;;;16.40;1.00;;;;;;6178117;28;20294;-51
2022/05/23 05:31:50;;;;;;;8.13;6.40;;;16.60;1.00;;;;;;6191432;28;20239;-51
2022/05/23 05:34:58;;;;;;;6.67;6.30;;;16.70;1.00;;;;;;6192641;28;20741;-51
2022/05/23 05:38:04;;;;;;;9.37;5.73;;;16.80;1.00;;;;;;6179887;28;20721;-51
2022/05/23 05:41:11;;;;;;;6.30;5.90;;;17.00;1.00;;;;;;6185127;28;20359;-52
2022/05/23 05:44:18;;;;;;;5.83;5.53;;;17.00;1.00;;;;;;6196492;28;20252;-53
2022/05/23 05:47:23;;;;;;;5.77;5.37;;;17.20;1.00;;;;;;6185902;28;20324;-51
2022/05/23 05:50:32;;;;;;;5.20;4.83;;;17.40;1.00;;;;;;6186193;28;20240;-50
2022/05/23 05:53:35;;;;;;;6.10;5.53;;;17.50;1.00;;;;;;6185877;28;20244;-52
2022/05/23 05:56:39;;;;;;;4.93;4.53;;;17.80;1.00;;;;;;6182361;28;20338;-53
2022/05/23 05:59:42;;;;;;;4.63;4.20;;;18.10;1.00;;;;;;6182080;28;20250;-52
2022/05/23 06:02:47;;;;;;;4.70;4.23;;;18.40;1.00;;;;;;6186543;28;20796;-55
2022/05/23 06:12:30;;;;;;;4.20;4.00;;;19.10;1.00;;;;;;6188172;28;20350;-54
2022/05/23 06:15:33;;;;;;;4.27;4.07;;;19.40;1.00;;;;;;6187341;28;20376;-51
2022/05/23 06:18:37;;;;;;;4.40;4.03;;;19.50;1.00;;;;;;6180616;28;20301;-53
2022/05/23 06:21:40;;;;;;;6.83;3.57;;;19.60;1.00;;;;;;6196268;28;20689;-47
2022/05/23 06:24:44;;;;;;;3.80;3.60;;;19.70;1.00;;;;;;6193315;28;20247;-50
2022/05/23 06:27:47;;;;;;;3.50;3.40;;;20.00;1.00;;;;;;6187770;28;20346;-51
2022/05/23 06:30:49;;;;;;;3.83;3.47;;;20.10;1.00;;;;;;6189277;28;20248;-51
2022/05/23 06:33:54;;;;;;;3.53;2.80;;;20.20;1.00;;;;;;6191060;28;20239;-52
2022/05/23 06:36:57;;;;;;;4.23;3.87;;;20.20;1.00;;;;;;6180401;28;20250;-52
2022/05/23 06:40:00;;;;;;;3.93;3.43;;;20.40;1.00;;;;;;6184470;28;20319;-51
2022/05/23 06:43:02;;;;;;;3.63;3.43;;;20.50;1.00;;;;;;6186082;28;20240;-51
2022/05/23 06:46:06;;;;;;;5.97;3.67;;;20.70;1.00;;;;;;6186658;28;20228;-51
2022/05/23 06:49:11;;;;;;;3.73;3.43;;;21.00;1.00;;;;;;6188413;28;20760;-50
2022/05/23 06:52:18;;;;;;;3.80;3.43;;;21.60;1.00;;;;;;6186251;28;20379;-52
2022/05/23 06:55:20;;;;;;;3.53;3.33;;;21.90;1.00;;;;;;6186946;28;20236;-51
2022/05/23 06:58:23;;;;;;;6.93;3.30;;;22.00;1.00;;;;;;6183222;28;20232;-52
2022/05/23 07:01:26;;;;;;;3.70;3.50;;;22.00;1.00;;;;;;6185103;28;20388;-51
2022/05/23 07:12:19;;;;;;;4.20;3.80;;;21.90;1.00;;;;;;6191238;28;20717;-51
2022/05/23 07:14:34;;;;;;;3.43;3.23;;;21.60;1.00;;;;;;6182618;28;20316;-51
2022/05/23 07:17:37;;;;;;;5.73;2.87;;;21.40;1.00;;;;;;6180725;28;20244;-50
2022/05/23 07:20:41;;;;;;;4.17;3.43;;;21.30;1.00;;;;;;6176661;28;20244;-50
2022/05/23 07:23:44;;;;;;;3.27;2.97;;;21.30;1.00;;;;;;6183351;28;20366;-51
2022/05/23 07:26:47;;;;;;;5.10;3.13;;;21.20;1.00;;;;;;6177034;28;20324;-52
2022/05/23 07:29:49;;;;;;;3.83;3.13;;;21.00;1.00;;;;;;6189803;28;20717;-51
2022/05/23 07:32:52;;;;;;;3.93;3.63;;;20.90;1.00;;;;;;6183306;28;20330;-52
2022/05/23 07:35:58;;;;;;;3.17;3.07;;;20.90;1.00;;;;;;6182636;28;20370;-52
2022/05/23 07:39:01;;;;;;;3.67;3.37;;;20.70;1.00;;;;;;6189698;28;20317;-50
2022/05/23 07:42:05;;;;;;;3.73;3.50;;;20.60;1.00;;;;;;6180793;28;20266;-51
2022/05/23 07:45:09;;;;;;;3.40;2.93;;;20.70;1.00;;;;;;6183615;28;20242;-49
2022/05/23 07:48:12;;;;;;;3.53;2.97;;;20.60;1.00;;;;;;6183853;28;20370;-50
2022/05/23 07:51:19;;;;;;;3.43;3.20;;;20.60;1.00;;;;;;6185740;28;20293;-50
2022/05/23 08:01:03;;;;;;;3.60;3.30;;;20.40;1.00;;;;;;6183298;28;20236;-53
2022/05/23 08:04:08;;;;;;;3.47;3.03;;;20.30;1.00;;;;;;6188405;28;20641;-51
2022/05/23 08:07:12;;;;;;;4.03;2.80;;;20.40;1.00;;;;;;6182280;28;20488;-51
2022/05/23 08:10:15;;;;;;;2.93;2.80;;;20.30;1.00;;;;;;6179855;28;20354;-51
2022/05/23 08:13:17;;;;;;;3.63;2.70;;;20.30;1.00;;;;;;6191114;28;20254;-51
2022/05/23 08:16:20;;;;;;;2.97;2.60;;;20.20;1.00;;;;;;6173987;28;20402;-51
2022/05/23 08:19:23;;;;;;;2.80;2.60;;;20.30;1.00;;;;;;6183379;28;20350;-51
2022/05/23 08:22:28;;;;;;;3.27;2.60;;;20.50;1.00;;;;;;6179370;28;20235;-51
2022/05/23 08:25:31;;;;;;;2.43;2.33;;;20.60;1.00;;;;;;6182795;28;20505;-50
2022/05/23 08:28:34;;;;;;;2.70;2.37;;;20.60;1.00;;;;;;6180276;28;20255;-51
2022/05/23 08:31:37;;;;;;;3.83;2.50;;;20.60;1.00;;;;;;6189512;28;20322;-52
2022/05/23 08:34:40;;;;;;;5.33;2.73;;;20.70;1.00;;;;;;6183455;28;20232;-51
2022/05/23 08:37:44;;;;;;;2.30;2.20;;;20.50;1.00;;;;;;6154260;28;20315;-50
2022/05/23 08:40:58;;;;;;;2.43;2.33;;;20.50;1.00;;;;;;6176035;28;20375;-50
2022/05/23 08:44:08;;;;;;;2.50;2.30;;;20.70;1.00;;;;;;6189442;28;20323;-51
2022/05/23 08:47:21;;;;;;;2.63;2.27;;;20.80;1.00;;;;;;6185498;28;20660;-52
2022/05/23 08:50:34;;;;;;;2.47;2.37;;;21.10;1.00;;;;;;6176390;28;20334;-50
2022/05/23 08:53:44;;;;;;;2.47;2.10;;;21.20;1.00;;;;;;6183934;28;20365;-51
2022/05/23 08:56:52;;;;;;;2.60;2.40;;;21.20;1.00;;;;;;6186155;28;20330;-51
2022/05/23 09:00:00;;;;;;;2.40;2.30;;;21.20;1.00;;;;;;6180882;28;20359;-51
2022/05/23 09:03:08;;;;;;;2.67;2.20;;;21.30;1.00;;;;;;6186700;28;20611;-51
2022/05/23 09:06:14;;;;;;;3.50;2.20;;;21.40;1.00;;;;;;6180152;28;20243;-51
2022/05/23 09:09:21;;;;;;;4.23;2.87;;;21.50;1.00;;;;;;6176685;28;20330;-51
2022/05/23 09:12:24;;;;;;;2.30;2.30;;;21.70;1.00;;;;;;6181151;28;20389;-52
2022/05/23 09:15:27;;;;;;;2.63;2.53;;;21.80;1.00;;;;;;6189759;28;20236;-51
2022/05/23 09:18:40;;;;;;;2.80;2.60;;;21.80;1.00;;;;;;6201979;28;20728;-51
2022/05/23 09:25:06;;;;;;;2.97;2.67;;;21.80;1.00;;;;;;6184472;28;20231;-51
2022/05/23 09:28:21;;;;;;;2.70;2.30;;;22.00;1.00;;;;;;6183744;28;20247;-51
2022/05/23 09:31:35;;;;;;;2.20;2.10;;;21.90;1.00;;;;;;6194542;28;20753;-52
2022/05/23 09:34:45;;;;;;;2.63;2.50;;;22.00;1.00;;;;;;6188649;28;20237;-50
2022/05/23 09:38:04;;;;;;;3.23;2.40;;;22.10;1.00;;;;;;6184693;28;20254;-51
2022/05/23 09:41:26;;;;;;;2.70;2.10;;;22.20;1.00;;;;;;6189414;28;20771;-51
2022/05/23 09:47:57;;;;;;;2.40;2.30;;;22.40;1.00;;;;;;6197225;28;20705;-51
2022/05/23 09:51:01;;;;;;;2.43;2.23;;;22.60;1.00;;;;;;6188744;28;20315;-51
2022/05/23 09:54:05;;;;;;;1.80;1.80;;;22.60;1.00;;;;;;6183993;28;20309;-52
2022/05/23 09:57:19;;;;;;;5.10;2.30;;;22.60;1.00;;;;;;6194810;28;20694;-51
2022/05/23 10:00:32;;;;;;;2.10;2.07;;;22.60;1.00;;;;;;6189771;28;20723;-51
2022/05/23 10:03:37;;;;;;;2.93;2.20;;;22.70;1.00;;;;;;6184112;28;20244;-51
2022/05/23 10:06:46;;;;;;;2.27;2.10;;;22.60;1.00;;;;;;6184371;28;20247;-50
2022/05/23 10:09:57;;;;;;;2.20;2.10;;;22.60;1.00;;;;;;6175004;28;20396;-51
2022/05/23 10:13:23;;;;;;;2.20;2.10;;;22.70;1.00;;;;;;6182658;28;20268;-50
2022/05/23 10:16:28;;;;;;;2.53;2.27;;;22.80;1.00;;;;;;6183667;28;20343;-51
2022/05/23 10:19:34;;;;;;;2.70;2.50;;;22.90;1.00;;;;;;6191043;28;20232;-50
2022/05/23 10:22:37;;;;;;;2.60;2.40;;;23.10;1.00;;;;;;6180543;28;20290;-50
2022/05/23 10:25:45;;;;;;;2.77;2.53;;;23.10;1.00;;;;;;6183768;28;20236;-51
2022/05/23 10:28:53;;;;;;;2.43;2.33;;;23.10;1.00;;;;;;6185680;28;20733;-51
2022/05/23 10:32:06;;;;;;;2.30;2.10;;;23.20;1.00;;;;;;6190041;28;20240;-50
2022/05/23 10:35:16;;;;;;;2.27;2.13;;;23.10;1.00;;;;;;6184499;28;20235;-51
2022/05/23 10:42:10;;;;;;;2.33;2.20;;;23.10;1.00;;;;;;6188953;28;20244;-49
2022/05/23 10:45:22;;;;;;;2.40;2.30;;;23.20;1.00;;;;;;6182946;28;20224;-50
2022/05/23 10:48:37;;;;;;;2.40;2.30;;;23.00;1.00;;;;;;6191040;28;20235;-52
2022/05/23 10:51:48;;;;;;;4.33;2.60;;;23.00;1.00;;;;;;6181814;28;20335;-52
2022/05/23 10:54:58;;;;;;;2.27;2.17;;;23.10;1.00;;;;;;6185591;28;20228;-49
2022/05/23 10:58:09;;;;;;;3.60;2.20;;;23.00;1.00;;;;;;6187642;28;20290;-51
2022/05/23 11:01:28;;;;;;;2.53;2.37;;;23.00;1.00;;;;;;6182651;28;20792;-51
2022/05/23 11:04:42;;;;;;;3.30;2.27;;;23.10;1.00;;;;;;6188661;28;20347;-50
2022/05/23 11:08:09;;;;;;;2.70;2.50;;;23.10;1.00;;;;;;6173814;28;20248;-51
2022/05/23 11:11:18;;;;;;;5.07;2.70;;;23.20;1.00;;;;;;6188828;28;20322;-51
2022/05/23 11:14:29;;;;;;;2.87;2.53;;;23.30;1.00;;;;;;6188871;28;20244;-51
2022/05/23 11:17:40;;;;;;;2.93;2.23;;;23.20;1.00;;;;;;6183191;28;20614;-52
2022/05/23 11:20:43;;;;;;;2.13;2.03;;;23.10;1.00;;;;;;6189307;28;20309;-50
2022/05/23 11:23:51;;;;;;;4.10;2.50;;;23.30;1.00;;;;;;6179646;28;20317;-52
2022/05/23 11:33:41;;;;;;;2.43;2.10;;;23.20;1.00;;;;;;6180480;28;20561;-52
2022/05/23 11:33:47;;;;;;;2.23;2.00;;;23.40;1.00;;;;;;6182995;28;20771;-51
2022/05/23 11:37:01;;;;;;;2.43;2.33;;;23.60;1.00;;;;;;6176807;28;20268;-50
2022/05/23 11:40:06;;;;;;;2.53;2.23;;;23.50;1.00;;;;;;6177222;28;20618;-52
2022/05/23 11:43:11;;;;;;;2.73;2.53;;;23.60;1.00;;;;;;6184820;28;20319;-53
2022/05/23 11:46:15;;;;;;;2.17;1.97;;;23.50;1.00;;;;;;6191631;28;20701;-51
2022/05/23 11:49:43;;;;;;;3.33;2.40;;;23.30;1.00;;;;;;6183905;28;20239;-51
2022/05/23 11:52:50;;;;;;;2.47;2.27;;;23.20;1.00;;;;;;6170745;28;20232;-51
2022/05/23 11:56:03;;;;;;;2.43;2.37;;;23.30;1.00;;;;;;6188797;28;20716;-52
2022/05/23 11:59:07;;;;;;;2.57;2.37;;;23.40;1.00;;;;;;6188164;28;20326;-51
2022/05/23 12:02:21;;;;;;;3.10;2.47;;;23.40;1.00;;;;;;6183048;28;20879;-52
2022/05/23 12:05:34;;;;;;;2.60;2.40;;;23.50;1.00;;;;;;6182745;28;20286;-50
2022/05/23 12:08:39;;;;;;;2.83;2.63;;;23.70;1.00;;;;;;6183061;28;20244;-51
2022/05/23 12:11:44;;;;;;;2.70;2.50;;;23.90;1.00;;;;;;6171125;28;20709;-51
2022/05/23 12:14:55;;;;;;;2.43;2.33;;;24.00;1.00;;;;;;6191907;28;20296;-49
2022/05/23 12:18:01;;;;;;;2.33;2.23;;;23.80;1.00;;;;;;6185965;28;20289;-52
2022/05/23 12:21:07;;;;;;;2.90;2.50;;;23.90;1.00;;;;;;6179554;28;20753;-50
2022/05/23 12:24:13;;;;;;;3.00;2.53;;;23.80;1.00;;;;;;6186693;28;20235;-51
2022/05/23 12:27:39;;;;;;;3.47;2.57;;;23.80;1.00;;;;;;6183972;28;20243;-52
2022/05/23 12:30:44;;;;;;;2.60;2.40;;;23.80;1.00;;;;;;6190131;28;20355;-55
2022/05/23 12:34:05;;;;;;;3.17;2.70;;;24.00;1.00;;;;;;6187018;28;20295;-52
2022/05/23 12:37:15;;;;;;;2.77;2.57;;;24.30;1.00;;;;;;6183591;28;20243;-50
2022/05/23 12:40:24;;;;;;;2.60;2.40;;;24.50;1.00;;;;;;6190436;28;20228;-51
2022/05/23 12:43:41;;;;;;;2.40;2.30;;;24.40;1.00;;;;;;6182542;28;20605;-51
2022/05/23 12:46:54;;;;;;;2.77;2.60;;;24.50;1.00;;;;;;6176546;28;20240;-49
2022/05/23 12:50:10;;;;;;;3.10;2.90;;;24.60;1.00;;;;;;6181209;28;20283;-51
2022/05/23 12:53:32;;;;;;;2.40;2.30;;;24.50;1.00;;;;;;6184490;28;20371;-49
2022/05/23 12:57:02;;;;;;;2.47;2.37;;;24.60;1.00;;;;;;6184671;28;20314;-49
2022/05/23 13:00:07;;;;;;;2.30;2.20;;;24.50;1.00;;;;;;6194485;28;20618;-52
2022/05/23 13:03:22;;;;;;;3.00;2.80;;;24.40;1.00;;;;;;6187264;28;20284;-51
2022/05/23 13:06:32;;;;;;;2.60;2.37;;;24.60;1.00;;;;;;6180865;28;20236;-50
2022/05/23 13:09:44;;;;;;;2.43;2.33;;;24.80;1.00;;;;;;6188343;28;20330;-50
2022/05/23 13:12:56;;;;;;;3.60;2.37;;;24.80;1.00;;;;;;6194714;28;20270;-51
2022/05/23 13:16:15;;;;;;;4.10;2.30;;;25.00;1.00;;;;;;6182593;28;20322;-49
2022/05/23 13:22:40;;;;;;;2.53;2.37;;;25.00;1.00;;;;;;6187940;28;20947;-51
2022/05/23 13:25:45;;;;;;;2.57;2.40;;;24.80;1.00;;;;;;6186300;28;20773;-51
2022/05/23 13:28:51;;;;;;;3.10;2.97;;;24.80;1.00;;;;;;6190292;28;20326;-49
2022/05/23 13:31:59;;;;;;;2.73;2.60;;;24.90;1.00;;;;;;6191981;28;20455;-51
2022/05/23 13:35:15;;;;;;;2.43;2.33;;;25.10;1.00;;;;;;6189055;28;20235;-51
2022/05/23 13:38:23;;;;;;;2.50;2.40;;;25.00;1.00;;;;;;6185976;28;20240;-49
2022/05/23 13:41:29;;;;;;;2.90;2.70;;;24.90;1.00;;;;;;6186292;28;20700;-49
2022/05/23 13:44:35;;;;;;;2.80;2.60;;;24.80;1.00;;;;;;6180444;28;20244;-50
2022/05/23 13:47:41;;;;;;;3.20;2.90;;;24.70;1.00;;;;;;6187379;28;20775;-51
2022/05/23 13:50:49;;;;;;;2.80;2.70;;;24.60;1.00;;;;;;6189291;28;20321;-50
2022/05/23 13:53:56;;;;;;;3.07;2.90;;;24.70;1.00;;;;;;6186343;28;20841;-51
2022/05/23 13:57:08;;;;;;;3.13;2.80;;;24.70;1.00;;;;;;6189407;28;20302;-51
2022/05/23 14:00:15;;;;;;;3.57;2.80;;;24.80;1.00;;;;;;6184926;28;20271;-51
2022/05/23 14:03:22;;;;;;;2.50;2.40;;;25.00;1.00;;;;;;6184939;28;20815;-51
2022/05/23 14:06:29;;;;;;;2.67;2.50;;;25.20;1.00;;;;;;6188197;28;20267;-50
2022/05/23 14:09:34;;;;;;;2.73;2.53;;;25.30;1.00;;;;;;6189004;28;20291;-52
2022/05/23 14:12:39;;;;;;;4.53;2.93;;;25.30;1.00;;;;;;6193258;28;20560;-50
2022/05/23 14:15:47;;;;;;;2.80;2.60;;;25.20;1.00;;;;;;6190593;28;20408;-49
2022/05/23 14:19:03;;;;;;;2.53;2.47;;;25.20;1.00;;;;;;6191775;28;20389;-51
2022/05/23 14:22:11;;;;;;;2.53;2.37;;;25.20;1.00;;;;;;6187593;28;20343;-51
2022/05/23 14:25:20;;;;;;;3.60;2.80;;;25.20;1.00;;;;;;6159671;28;20850;-45
2022/05/23 14:28:27;;;;;;;5.57;2.80;;;25.10;1.00;;;;;;6177860;28;20322;-49
2022/05/23 14:31:36;;;;;;;5.10;2.70;;;24.90;1.00;;;;;;6186064;28;20321;-50
2022/05/23 14:34:38;;;;;;;3.63;3.30;;;24.90;1.00;;;;;;6190383;28;20666;-51
2022/05/23 14:37:43;;;;;;;2.53;2.53;;;24.80;1.00;;;;;;6178362;28;20244;-51
2022/05/23 14:40:46;;;;;;;4.00;3.00;;;24.70;1.00;;;;;;6186743;28;20244;-51
2022/05/23 14:44:00;;;;;;;2.90;2.70;;;24.70;1.00;;;;;;6186362;28;20635;-51
2022/05/23 14:47:09;;;;;;;4.90;2.93;;;24.70;1.00;;;;;;6180505;28;20656;-51
2022/05/23 14:50:19;;;;;;;2.90;2.80;;;24.60;1.00;;;;;;6188484;28;21068;-51
2022/05/23 14:56:52;;;;;;;2.80;2.60;;;24.50;1.00;;;;;;6192057;28;20277;-51
2022/05/23 15:03:20;;;;;;;2.50;2.40;;;24.40;1.00;;;;;;6175571;28;20231;-51
2022/05/23 15:06:24;;;;;;;4.00;2.70;;;24.40;1.00;;;;;;6182779;28;20251;-50
2022/05/23 15:09:27;;;;;;;4.77;3.20;;;24.30;1.00;;;;;;6178077;28;20285;-51
2022/05/23 15:12:30;;;;;;;2.83;2.63;;;24.40;1.00;;;;;;6190168;28;20663;-51
2022/05/23 15:15:37;;;;;;;2.90;2.40;;;24.80;1.00;;;;;;6184874;28;20343;-50
2022/05/23 15:18:40;;;;;;;2.70;2.60;;;25.00;1.00;;;;;;6180149;28;20248;-50
2022/05/23 15:21:44;;;;;;;2.80;2.70;;;25.00;1.00;;;;;;6173981;28;20235;-52
2022/05/23 15:24:47;;;;;;;2.97;2.77;;;25.00;1.00;;;;;;6184855;28;20463;-51
2022/05/23 15:27:50;;;;;;;2.83;2.63;;;25.00;1.00;;;;;;6186196;28;20270;-52
2022/05/23 15:30:54;;;;;;;2.90;2.80;;;25.00;1.00;;;;;;6192086;28;20361;-51
2022/05/23 15:33:58;;;;;;;2.60;2.40;;;24.80;1.00;;;;;;6183344;28;20863;-51
2022/05/23 15:37:00;;;;;;;2.63;2.43;;;24.60;1.00;;;;;;6183627;28;20243;-51
2022/05/23 15:40:04;;;;;;;2.63;2.43;;;24.40;1.00;;;;;;6188608;28;20851;-51
2022/05/23 15:43:09;;;;;;;3.67;3.03;;;24.20;1.00;;;;;;6189756;28;20319;-51
2022/05/23 15:46:20;;;;;;;2.80;2.70;;;24.10;1.00;;;;;;6182551;28;20243;-49
2022/05/23 15:49:28;;;;;;;3.27;3.07;;;24.00;1.00;;;;;;6185146;28;20260;-50
2022/05/23 15:52:31;;;;;;;2.70;2.60;;;24.00;1.00;;;;;;6179282;28;20562;-51
2022/05/23 15:55:34;;;;;;;4.43;2.87;;;24.00;1.00;;;;;;6184833;28;20258;-50
2022/05/23 15:58:38;;;;;;;2.77;2.70;;;24.10;1.00;;;;;;6185159;28;20314;-50
2022/05/23 16:01:42;;;;;;;2.83;2.73;;;24.10;1.00;;;;;;6177598;28;20354;-51
2022/05/23 16:04:45;;;;;;;3.17;2.97;;;24.50;1.00;;;;;;6184871;28;20231;-51
2022/05/23 16:07:49;;;;;;;5.83;3.20;;;24.60;1.00;;;;;;6170061;28;21245;-51
2022/05/23 16:11:01;;;;;;;3.13;3.00;;;24.60;1.00;;;;;;6181506;28;20835;-51
2022/05/23 16:14:09;;;;;;;2.77;2.63;;;24.40;1.00;;;;;;6181560;28;20390;-51
2022/05/23 16:17:13;;;;;;;2.90;2.63;;;24.30;1.00;;;;;;6176651;28;20243;-50
2022/05/23 16:20:17;;;;;;;5.37;3.13;;;24.10;1.00;;;;;;6180688;28;20388;-51
2022/05/23 16:23:21;;;;;;;3.73;2.73;;;24.00;1.00;;;;;;6178954;28;20717;-51
2022/05/23 16:26:24;;;;;;;5.00;3.60;;;23.90;1.00;;;;;;6167269;28;20327;-50
2022/05/23 16:29:27;;;;;;;3.27;3.07;;;23.80;1.00;;;;;;6180503;28;20829;-50
2022/05/23 16:39:21;;;;;;;5.00;2.73;;;23.50;1.00;;;;;;6180630;28;20745;-51
2022/05/23 16:42:44;;;;;;;3.40;3.20;;;23.50;1.00;;;;;;6182324;28;20236;-51
2022/05/23 16:45:47;;;;;;;3.77;3.00;;;23.50;1.00;;;;;;6178274;28;20500;-51
2022/05/23 16:48:51;;;;;;;3.03;2.83;;;23.60;1.00;;;;;;6168658;28;20316;-51
2022/05/23 16:51:54;;;;;;;3.33;2.80;;;23.60;1.00;;;;;;6175133;28;20315;-51
2022/05/23 16:54:57;;;;;;;3.70;3.40;;;23.50;1.00;;;;;;6183375;28;20263;-50
2022/05/23 16:58:00;;;;;;;3.10;3.00;;;23.40;1.00;;;;;;6175053;28;20720;-51
2022/05/23 17:01:02;;;;;;;3.07;2.83;;;23.30;1.00;;;;;;6184536;28;20273;-47
2022/05/23 17:04:07;;;;;;;4.27;3.30;;;23.10;1.00;;;;;;6200151;28;20759;-49
2022/05/23 17:07:09;;;;;;;3.83;3.60;;;23.00;1.00;;;;;;6187737;28;20247;-50
2022/05/23 17:10:13;;;;;;;3.33;3.13;;;22.80;1.00;;;;;;6179972;28;20330;-50
2022/05/23 17:13:19;;;;;;;3.40;3.10;;;22.80;1.00;;;;;;6186783;28;20639;-49
2022/05/23 17:16:22;;;;;;;4.03;3.40;;;22.70;1.00;;;;;;6186055;28;20302;-51
2022/05/23 17:19:26;;;;;;;3.03;2.93;;;22.70;1.00;;;;;;6181003;28;20534;-51
2022/05/23 17:22:29;;;;;;;3.50;3.20;;;22.70;1.00;;;;;;6176960;28;20285;-50
2022/05/23 17:25:31;;;;;;;3.00;2.80;;;22.70;1.00;;;;;;6178840;28;20237;-50
2022/05/23 17:28:35;;;;;;;3.40;3.20;;;22.60;1.00;;;;;;6177872;28;20250;-51
2022/05/23 17:31:38;;;;;;;3.60;2.73;;;22.60;1.00;;;;;;6181454;28;20247;-51
2022/05/23 17:34:42;;;;;;;6.80;3.23;;;22.50;1.00;;;;;;6190099;28;20632;-53